sensor_id;sensor_type;location;lat;lon;timestamp;pressure;altitude;pressure_sealevel;temperature;humidity
39773;BME280;25451;51.960;6.250;2023-03-25T00:01:57;99993.84;;;10.22;75.51
39773;BME280;25451;51.960;6.250;2023-03-25T00:04:22;99983.06;;;10.21;75.27
39773;BME280;25451;51.960;6.250;2023-03-25T00:06:54;99989.69;;;10.20;75.40
39773;BME280;25451;51.960;6.250;2023-03-25T00:09:20;99989.94;;;10.18;75.42
39773;BME280;25451;51.960;6.250;2023-03-25T00:11:48;99987.75;;;10.20;75.44
39773;BME280;25451;51.960;6.250;2023-03-25T00:14:14;99994.66;;;10.18;75.53
39773;BME280;25451;51.960;6.250;2023-03-25T00:16:41;99994.88;;;10.16;75.14
39773;BME280;25451;51.960;6.250;2023-03-25T00:19:07;99991.88;;;10.18;75.43
39773;BME280;25451;51.960;6.250;2023-03-25T00:21:33;99985.81;;;10.16;75.34
39773;BME280;25451;51.960;6.250;2023-03-25T00:23:59;99987.44;;;10.17;75.50
39773;BME280;25451;51.960;6.250;2023-03-25T00:26:25;99986.59;;;10.16;75.36
39773;BME280;25451;51.960;6.250;2023-03-25T00:28:54;99981.38;;;10.15;75.33
39773;BME280;25451;51.960;6.250;2023-03-25T00:31:19;99975.84;;;10.15;75.53
39773;BME280;25451;51.960;6.250;2023-03-25T00:33:44;99977.78;;;10.14;75.61
39773;BME280;25451;51.960;6.250;2023-03-25T00:36:10;99979.44;;;10.15;75.19
39773;BME280;25451;51.960;6.250;2023-03-25T00:38:38;99984.13;;;10.15;75.45
39773;BME280;25451;51.960;6.250;2023-03-25T00:43:37;99989.63;;;10.15;75.53
39773;BME280;25451;51.960;6.250;2023-03-25T00:46:03;99984.66;;;10.12;75.46
39773;BME280;25451;51.960;6.250;2023-03-25T00:48:28;99985.22;;;10.14;75.30
39773;BME280;25451;51.960;6.250;2023-03-25T00:50:54;99984.66;;;10.12;75.41
39773;BME280;25451;51.960;6.250;2023-03-25T00:53:19;99982.47;;;10.14;75.52
39773;BME280;25451;51.960;6.250;2023-03-25T00:55:45;99987.72;;;10.15;75.50
39773;BME280;25451;51.960;6.250;2023-03-25T00:58:10;99975.28;;;10.13;75.48
39773;BME280;25451;51.960;6.250;2023-03-25T01:00:35;99989.63;;;10.15;75.66
39773;BME280;25451;51.960;6.250;2023-03-25T01:03:01;99976.69;;;10.15;75.40
39773;BME280;25451;51.960;6.250;2023-03-25T01:05:28;99969.78;;;10.13;75.37
39773;BME280;25451;51.960;6.250;2023-03-25T01:07:54;99976.97;;;10.14;75.65
39773;BME280;25451;51.960;6.250;2023-03-25T01:10:19;99982.47;;;10.14;75.39
39773;BME280;25451;51.960;6.250;2023-03-25T01:12:45;99983.03;;;10.16;75.36
39773;BME280;25451;51.960;6.250;2023-03-25T01:15:11;99984.41;;;10.13;75.45
39773;BME280;25451;51.960;6.250;2023-03-25T01:17:36;99988.56;;;10.16;75.77
39773;BME280;25451;51.960;6.250;2023-03-25T01:20:02;99984.13;;;10.15;75.39
39773;BME280;25451;51.960;6.250;2023-03-25T01:22:30;99981.94;;;10.17;75.64
39773;BME280;25451;51.960;6.250;2023-03-25T01:24:56;99981.94;;;10.17;75.41
39773;BME280;25451;51.960;6.250;2023-03-25T01:27:21;99990.78;;;10.19;75.20
39773;BME280;25451;51.960;6.250;2023-03-25T01:29:48;99990.78;;;10.19;75.25
39773;BME280;25451;51.960;6.250;2023-03-25T01:32:14;99983.34;;;10.19;75.25
39773;BME280;25451;51.960;6.250;2023-03-25T01:34:39;99989.69;;;10.20;75.28
39773;BME280;25451;51.960;6.250;2023-03-25T01:37:07;99986.09;;;10.19;75.37
39773;BME280;25451;51.960;6.250;2023-03-25T01:39:34;99997.97;;;10.20;75.32
39773;BME280;25451;51.960;6.250;2023-03-25T01:41:59;99971.44;;;10.14;75.35
39773;BME280;25451;51.960;6.250;2023-03-25T01:46:52;99977.56;;;10.21;75.19
39773;BME280;25451;51.960;6.250;2023-03-25T01:49:21;99986.94;;;10.20;75.16
39773;BME280;25451;51.960;6.250;2023-03-25T01:51:50;99986.41;;;10.23;75.12
39773;BME280;25451;51.960;6.250;2023-03-25T01:54:17;99976.47;;;10.22;75.11
39773;BME280;25451;51.960;6.250;2023-03-25T01:56:45;99973.41;;;10.18;75.15
39773;BME280;25451;51.960;6.250;2023-03-25T01:59:12;99974.22;;;10.19;75.06
39773;BME280;25451;51.960;6.250;2023-03-25T02:01:39;99959.88;;;10.17;75.08
39773;BME280;25451;51.960;6.250;2023-03-25T02:04:05;99978.91;;;10.18;75.04
39773;BME280;25451;51.960;6.250;2023-03-25T02:06:41;99976.16;;;10.18;75.07
39773;BME280;25451;51.960;6.250;2023-03-25T02:09:07;99962.38;;;10.18;74.84
39773;BME280;25451;51.960;6.250;2023-03-25T02:11:33;99969.25;;;10.16;74.80
39773;BME280;25451;51.960;6.250;2023-03-25T02:14:03;99979.44;;;10.15;75.06
39773;BME280;25451;51.960;6.250;2023-03-25T02:23:03;99970.34;;;10.15;74.99
39773;BME280;25451;51.960;6.250;2023-03-25T02:39:01;99967.28;;;10.11;74.68
39773;BME280;25451;51.960;6.250;2023-03-25T02:41:46;99967.53;;;10.10;74.80
39773;BME280;25451;51.960;6.250;2023-03-25T02:44:21;99966.69;;;10.09;74.77
39773;BME280;25451;51.960;6.250;2023-03-25T02:46:53;99961.69;;;10.06;74.88
39773;BME280;25451;51.960;6.250;2023-03-25T02:49:28;99971.91;;;10.06;74.71
39773;BME280;25451;51.960;6.250;2023-03-25T02:52:06;99966.94;;;10.08;74.64
39773;BME280;25451;51.960;6.250;2023-03-25T02:54:34;99960.59;;;10.07;74.74
39773;BME280;25451;51.960;6.250;2023-03-25T02:57:04;99950.41;;;10.08;74.83
39773;BME280;25451;51.960;6.250;2023-03-25T02:59:32;99955.09;;;10.07;74.85
39773;BME280;25451;51.960;6.250;2023-03-25T03:02:04;99962.25;;;10.08;74.63
39773;BME280;25451;51.960;6.250;2023-03-25T03:04:32;99958.91;;;10.06;74.82
39773;BME280;25451;51.960;6.250;2023-03-25T03:06:57;99952.59;;;10.06;74.53
39773;BME280;25451;51.960;6.250;2023-03-25T03:09:39;99951.22;;;10.08;74.74
39773;BME280;25451;51.960;6.250;2023-03-25T03:14:53;99945.41;;;10.04;74.65
39773;BME280;25451;51.960;6.250;2023-03-25T03:17:35;99961.94;;;10.04;74.70
39773;BME280;25451;51.960;6.250;2023-03-25T03:20:27;99952.03;;;10.03;74.65
39773;BME280;25451;51.960;6.250;2023-03-25T03:23:13;99956.13;;;10.01;74.77
39773;BME280;25451;51.960;6.250;2023-03-25T03:25:50;99944.28;;;10.00;74.95
39773;BME280;25451;51.960;6.250;2023-03-25T03:31:06;99952.53;;;10.00;74.58
39773;BME280;25451;51.960;6.250;2023-03-25T03:33:40;99938.16;;;9.93;74.67
39773;BME280;25451;51.960;6.250;2023-03-25T03:36:13;99948.13;;;9.99;74.75
39773;BME280;25451;51.960;6.250;2023-03-25T03:38:43;99943.97;;;9.97;74.84
39773;BME280;25451;51.960;6.250;2023-03-25T03:41:13;99939.53;;;9.96;74.90
39773;BME280;25451;51.960;6.250;2023-03-25T03:43:47;99949.75;;;9.95;74.86
39773;BME280;25451;51.960;6.250;2023-03-25T03:46:20;99958.81;;;9.96;74.82
39773;BME280;25451;51.960;6.250;2023-03-25T03:48:50;99961.59;;;9.96;74.99
39773;BME280;25451;51.960;6.250;2023-03-25T03:51:22;99951.09;;;9.93;75.04
39773;BME280;25451;51.960;6.250;2023-03-25T03:53:53;99962.97;;;9.93;74.91
39773;BME280;25451;51.960;6.250;2023-03-25T03:56:31;99960.22;;;9.93;75.16
39773;BME280;25451;51.960;6.250;2023-03-25T03:59:04;99963.19;;;9.92;75.10
39773;BME280;25451;51.960;6.250;2023-03-25T04:01:41;99952.19;;;9.92;75.20
39773;BME280;25451;51.960;6.250;2023-03-25T04:04:14;99957.97;;;9.90;75.28
39773;BME280;25451;51.960;6.250;2023-03-25T04:06:47;99955.19;;;9.90;75.45
39773;BME280;25451;51.960;6.250;2023-03-25T04:09:29;99952.44;;;9.90;75.38
39773;BME280;25451;51.960;6.250;2023-03-25T04:12:02;99949.13;;;9.88;75.34
39773;BME280;25451;51.960;6.250;2023-03-25T04:14:30;99951.03;;;9.88;75.58
39773;BME280;25451;51.960;6.250;2023-03-25T04:16:56;99943.88;;;9.87;75.38
39773;BME280;25451;51.960;6.250;2023-03-25T04:19:24;99948.56;;;9.86;75.32
39773;BME280;25451;51.960;6.250;2023-03-25T04:21:50;99955.75;;;9.87;75.77
39773;BME280;25451;51.960;6.250;2023-03-25T04:24:16;99931.38;;;9.79;75.52
39773;BME280;25451;51.960;6.250;2023-03-25T04:26:43;99957.91;;;9.85;75.53
39773;BME280;25451;51.960;6.250;2023-03-25T04:29:09;99950.75;;;9.84;75.59
39773;BME280;25451;51.960;6.250;2023-03-25T04:31:34;99946.88;;;9.85;75.41
39773;BME280;25451;51.960;6.250;2023-03-25T04:34:00;99943.31;;;9.85;75.80
39773;BME280;25451;51.960;6.250;2023-03-25T04:36:26;99937.47;;;9.81;75.41
39773;BME280;25451;51.960;6.250;2023-03-25T04:38:53;99939.97;;;9.83;75.63
39773;BME280;25451;51.960;6.250;2023-03-25T04:41:20;99941.06;;;9.82;75.79
39773;BME280;25451;51.960;6.250;2023-03-25T04:43:45;99948.25;;;9.83;75.51
39773;BME280;25451;51.960;6.250;2023-03-25T04:46:12;99950.44;;;9.81;75.65
39773;BME280;25451;51.960;6.250;2023-03-25T04:48:38;99956.75;;;9.81;75.39
39773;BME280;25451;51.960;6.250;2023-03-25T04:51:06;99954.00;;;9.81;75.71
39773;BME280;25451;51.960;6.250;2023-03-25T04:53:35;99946.84;;;9.80;75.85
39773;BME280;25451;51.960;6.250;2023-03-25T04:56:00;99949.59;;;9.80;75.54
39773;BME280;25451;51.960;6.250;2023-03-25T04:58:26;99949.53;;;9.75;75.72
39773;BME280;25451;51.960;6.250;2023-03-25T05:00:53;99956.19;;;9.79;75.85
39773;BME280;25451;51.960;6.250;2023-03-25T05:03:19;99941.59;;;9.79;75.79
39773;BME280;25451;51.960;6.250;2023-03-25T05:05:49;99929.75;;;9.78;75.75
39773;BME280;25451;51.960;6.250;2023-03-25T05:08:15;99928.91;;;9.78;75.63
39773;BME280;25451;51.960;6.250;2023-03-25T05:10:41;99935.25;;;9.78;75.75
39773;BME280;25451;51.960;6.250;2023-03-25T05:13:07;99930.81;;;9.77;75.85
39773;BME280;25451;51.960;6.250;2023-03-25T05:15:35;99930.81;;;9.77;75.59
39773;BME280;25451;51.960;6.250;2023-03-25T05:18:07;99926.13;;;9.78;75.97
39773;BME280;25451;51.960;6.250;2023-03-25T05:20:39;99931.09;;;9.76;75.76
39773;BME280;25451;51.960;6.250;2023-03-25T05:23:09;99937.44;;;9.76;75.85
39773;BME280;25451;51.960;6.250;2023-03-25T05:25:39;99951.78;;;9.78;75.87
39773;BME280;25451;51.960;6.250;2023-03-25T05:28:05;99955.63;;;9.77;75.81
39773;BME280;25451;51.960;6.250;2023-03-25T05:30:34;99951.22;;;9.76;75.88
39773;BME280;25451;51.960;6.250;2023-03-25T05:33:04;99952.06;;;9.77;75.82
39773;BME280;25451;51.960;6.250;2023-03-25T05:35:29;99944.88;;;9.76;75.88
39773;BME280;25451;51.960;6.250;2023-03-25T05:37:54;99950.94;;;9.78;75.46
39773;BME280;25451;51.960;6.250;2023-03-25T05:40:20;99944.59;;;9.77;75.96
39773;BME280;25451;51.960;6.250;2023-03-25T05:42:46;99955.03;;;9.75;75.76
39773;BME280;25451;51.960;6.250;2023-03-25T05:45:14;99955.63;;;9.77;75.62
39773;BME280;25451;51.960;6.250;2023-03-25T05:47:40;99951.78;;;9.78;75.89
39773;BME280;25451;51.960;6.250;2023-03-25T05:50:07;99943.44;;;9.73;75.79
39773;BME280;25451;51.960;6.250;2023-03-25T05:52:34;99951.47;;;9.75;75.95
39773;BME280;25451;51.960;6.250;2023-03-25T05:55:00;99950.63;;;9.74;75.88
39773;BME280;25451;51.960;6.250;2023-03-25T05:57:26;99964.41;;;9.74;75.93
39773;BME280;25451;51.960;6.250;2023-03-25T05:59:52;99957.81;;;9.75;76.17
39773;BME280;25451;51.960;6.250;2023-03-25T06:02:17;99947.88;;;9.74;75.84
39773;BME280;25451;51.960;6.250;2023-03-25T06:04:42;99962.75;;;9.73;76.00
39773;BME280;25451;51.960;6.250;2023-03-25T06:07:12;99953.13;;;9.76;75.96
39773;BME280;25451;51.960;6.250;2023-03-25T06:09:41;99940.13;;;9.71;75.58
39773;BME280;25451;51.960;6.250;2023-03-25T06:12:11;99956.72;;;9.76;75.96
39773;BME280;25451;51.960;6.250;2023-03-25T06:14:36;99967.75;;;9.76;75.89
39773;BME280;25451;51.960;6.250;2023-03-25T06:17:02;99976.84;;;9.77;76.03
39773;BME280;25451;51.960;6.250;2023-03-25T06:19:27;99968.81;;;9.75;75.73
39773;BME280;25451;51.960;6.250;2023-03-25T06:21:52;99968.81;;;9.75;76.01
39773;BME280;25451;51.960;6.250;2023-03-25T06:24:19;99967.75;;;9.76;76.01
39773;BME280;25451;51.960;6.250;2023-03-25T06:26:44;99973.00;;;9.78;75.91
39773;BME280;25451;51.960;6.250;2023-03-25T06:29:10;99968.31;;;9.78;75.92
39773;BME280;25451;51.960;6.250;2023-03-25T06:31:35;99974.97;;;9.82;75.70
39773;BME280;25451;51.960;6.250;2023-03-25T06:34:01;99968.88;;;9.80;75.75
39773;BME280;25451;51.960;6.250;2023-03-25T06:36:26;99989.81;;;9.81;75.99
39773;BME280;25451;51.960;6.250;2023-03-25T06:38:52;99986.50;;;9.79;75.83
39773;BME280;25451;51.960;6.250;2023-03-25T06:41:19;99984.31;;;9.81;76.01
39773;BME280;25451;51.960;6.250;2023-03-25T06:43:45;99976.03;;;9.81;75.80
39773;BME280;25451;51.960;6.250;2023-03-25T06:46:11;99959.41;;;9.71;75.69
39773;BME280;25451;51.960;6.250;2023-03-25T06:48:37;99983.81;;;9.84;75.69
39773;BME280;25451;51.960;6.250;2023-03-25T06:51:02;99987.41;;;9.85;75.82
39773;BME280;25451;51.960;6.250;2023-03-25T06:53:27;99979.94;;;9.85;76.05
39773;BME280;25451;51.960;6.250;2023-03-25T06:55:55;99990.72;;;9.87;75.97
39773;BME280;25451;51.960;6.250;2023-03-25T06:58:20;99987.97;;;9.87;75.85
39773;BME280;25451;51.960;6.250;2023-03-25T07:00:46;99981.13;;;9.89;75.98
39773;BME280;25451;51.960;6.250;2023-03-25T07:03:11;99977.81;;;9.92;75.78
39773;BME280;25451;51.960;6.250;2023-03-25T07:05:37;99983.91;;;9.94;75.79
39773;BME280;25451;51.960;6.250;2023-03-25T07:08:04;99986.41;;;9.96;75.77
39773;BME280;25451;51.960;6.250;2023-03-25T07:10:30;99972.09;;;9.99;75.71
39773;BME280;25451;51.960;6.250;2023-03-25T07:12:56;99982.03;;;10.00;75.90
39773;BME280;25451;51.960;6.250;2023-03-25T07:15:21;99984.53;;;10.01;75.62
39773;BME280;25451;51.960;6.250;2023-03-25T07:17:47;99974.09;;;10.03;75.69
39773;BME280;25451;51.960;6.250;2023-03-25T07:20:13;99990.06;;;10.01;75.52
39773;BME280;25451;51.960;6.250;2023-03-25T07:22:39;99996.72;;;10.06;75.79
39773;BME280;25451;51.960;6.250;2023-03-25T07:25:04;99997.50;;;10.06;75.58
39773;BME280;25451;51.960;6.250;2023-03-25T07:27:30;99976.88;;;10.09;75.49
39773;BME280;25451;51.960;6.250;2023-03-25T07:29:55;99986.81;;;10.10;75.31
39773;BME280;25451;51.960;6.250;2023-03-25T07:32:21;99980.47;;;10.09;75.23
39773;BME280;25451;51.960;6.250;2023-03-25T07:34:46;99982.47;;;10.14;75.40
39773;BME280;25451;51.960;6.250;2023-03-25T07:37:11;99996.84;;;10.16;75.45
39773;BME280;25451;51.960;6.250;2023-03-25T07:39:37;99989.69;;;10.20;75.41
39773;BME280;25451;51.960;6.250;2023-03-25T07:42:04;100000.75;;;10.25;75.21
39773;BME280;25451;51.960;6.250;2023-03-25T07:44:30;100000.81;;;10.30;75.07
39773;BME280;25451;51.960;6.250;2023-03-25T07:46:55;100001.38;;;10.32;75.00
39773;BME280;25451;51.960;6.250;2023-03-25T07:49:21;99990.38;;;10.37;74.98
39773;BME280;25451;51.960;6.250;2023-03-25T07:51:46;99992.91;;;10.38;74.90
39773;BME280;25451;51.960;6.250;2023-03-25T07:54:11;99994.28;;;10.41;74.96
39773;BME280;25451;51.960;6.250;2023-03-25T07:56:37;100000.34;;;10.43;74.90
39773;BME280;25451;51.960;6.250;2023-03-25T07:59:03;100010.31;;;10.44;74.72
39773;BME280;25451;51.960;6.250;2023-03-25T08:01:29;100010.59;;;10.47;74.81
39773;BME280;25451;51.960;6.250;2023-03-25T08:03:55;100007.56;;;10.49;74.87
39773;BME280;25451;51.960;6.250;2023-03-25T08:06:20;100013.66;;;10.51;74.66
39773;BME280;25451;51.960;6.250;2023-03-25T08:08:45;100015.06;;;10.53;74.85
39773;BME280;25451;51.960;6.250;2023-03-25T08:11:11;100013.16;;;10.54;74.73
39773;BME280;25451;51.960;6.250;2023-03-25T08:13:36;100022.56;;;10.58;74.85
39773;BME280;25451;51.960;6.250;2023-03-25T08:16:02;100027.53;;;10.61;74.63
39773;BME280;25451;51.960;6.250;2023-03-25T08:18:27;100022.84;;;10.61;74.70
39773;BME280;25451;51.960;6.250;2023-03-25T08:20:53;100041.94;;;10.68;74.84
39773;BME280;25451;51.960;6.250;2023-03-25T08:23:19;100045.00;;;10.71;74.51
39773;BME280;25451;51.960;6.250;2023-03-25T08:25:47;100045.00;;;10.71;74.76
39773;BME280;25451;51.960;6.250;2023-03-25T08:28:15;100054.69;;;10.74;74.60
39773;BME280;25451;51.960;6.250;2023-03-25T08:30:47;100044.50;;;10.74;74.79
39773;BME280;25451;51.960;6.250;2023-03-25T08:33:14;100038.69;;;10.76;74.78
39773;BME280;25451;51.960;6.250;2023-03-25T08:35:41;100043.13;;;10.77;74.72
39773;BME280;25451;51.960;6.250;2023-03-25T08:38:07;100051.16;;;10.78;74.91
39773;BME280;25451;51.960;6.250;2023-03-25T08:40:34;100045.63;;;10.78;74.96
39773;BME280;25451;51.960;6.250;2023-03-25T08:42:59;100037.91;;;10.80;75.07
39773;BME280;25451;51.960;6.250;2023-03-25T08:45:25;100040.41;;;10.82;75.01
39773;BME280;25451;51.960;6.250;2023-03-25T08:47:50;100049.25;;;10.84;75.13
39773;BME280;25451;51.960;6.250;2023-03-25T08:50:16;100053.41;;;10.87;75.12
39773;BME280;25451;51.960;6.250;2023-03-25T08:52:41;100050.38;;;10.88;75.06
39773;BME280;25451;51.960;6.250;2023-03-25T08:55:07;100051.22;;;10.89;75.21
39773;BME280;25451;51.960;6.250;2023-03-25T08:57:34;100057.03;;;10.92;75.07
39773;BME280;25451;51.960;6.250;2023-03-25T09:00:01;100051.00;;;10.95;75.33
39773;BME280;25451;51.960;6.250;2023-03-25T09:02:26;100050.16;;;11.00;75.23
39773;BME280;25451;51.960;6.250;2023-03-25T09:04:52;100051.56;;;11.02;75.20
39773;BME280;25451;51.960;6.250;2023-03-25T09:07:18;100060.97;;;11.06;75.16
39773;BME280;25451;51.960;6.250;2023-03-25T09:09:44;100061.56;;;11.08;75.20
39773;BME280;25451;51.960;6.250;2023-03-25T09:12:10;100067.06;;;11.08;75.17
39773;BME280;25451;51.960;6.250;2023-03-25T09:14:36;100056.31;;;11.07;75.30
39773;BME280;25451;51.960;6.250;2023-03-25T09:17:01;100055.75;;;11.10;75.25
39773;BME280;25451;51.960;6.250;2023-03-25T09:19:26;100062.13;;;11.10;75.43
39773;BME280;25451;51.960;6.250;2023-03-25T09:21:52;100064.88;;;11.10;75.52
39773;BME280;25451;51.960;6.250;2023-03-25T09:24:18;100057.72;;;11.09;75.49
39773;BME280;25451;51.960;6.250;2023-03-25T09:26:43;100053.81;;;11.10;75.60
39773;BME280;25451;51.960;6.250;2023-03-25T09:29:08;100050.00;;;11.11;75.56
39773;BME280;25451;51.960;6.250;2023-03-25T09:31:34;100046.94;;;11.13;75.81
39773;BME280;25451;51.960;6.250;2023-03-25T09:34:00;100043.06;;;11.14;75.78
39773;BME280;25451;51.960;6.250;2023-03-25T09:36:26;100045.03;;;11.18;75.96
39773;BME280;25451;51.960;6.250;2023-03-25T09:38:51;100042.31;;;11.23;75.74
39773;BME280;25451;51.960;6.250;2023-03-25T09:44:26;100050.38;;;11.35;75.52
39773;BME280;25451;51.960;6.250;2023-03-25T09:46:55;100041.00;;;11.36;75.52
39773;BME280;25451;51.960;6.250;2023-03-25T09:49:35;100044.34;;;11.38;75.52
39773;BME280;25451;51.960;6.250;2023-03-25T09:52:03;100046.53;;;11.41;75.44
39773;BME280;25451;51.960;6.250;2023-03-25T09:54:36;100049.03;;;11.42;75.28
39773;BME280;25451;51.960;6.250;2023-03-25T09:57:07;100056.78;;;11.45;75.63
39773;BME280;25451;51.960;6.250;2023-03-25T09:59:44;100065.66;;;11.47;75.39
39773;BME280;25451;51.960;6.250;2023-03-25T10:08:09;100070.13;;;11.63;75.28
39773;BME280;25451;51.960;6.250;2023-03-25T10:10:58;100077.94;;;11.67;75.38
39773;BME280;25451;51.960;6.250;2023-03-25T10:16:01;100075.19;;;11.72;75.45
39773;BME280;25451;51.960;6.250;2023-03-25T10:24:12;100076.34;;;11.86;75.33
39773;BME280;25451;51.960;6.250;2023-03-25T10:26:48;100086.88;;;11.89;75.39
39773;BME280;25451;51.960;6.250;2023-03-25T10:29:20;100082.72;;;11.91;75.27
39773;BME280;25451;51.960;6.250;2023-03-25T10:31:52;100086.88;;;11.94;75.20
39773;BME280;25451;51.960;6.250;2023-03-25T10:34:23;100062.00;;;11.99;75.12
39773;BME280;25451;51.960;6.250;2023-03-25T10:36:52;100076.69;;;12.04;75.38
39773;BME280;25451;51.960;6.250;2023-03-25T10:39:22;100080.03;;;12.16;75.20
39773;BME280;25451;51.960;6.250;2023-03-25T10:41:58;100070.91;;;12.26;74.89
39773;BME280;25451;51.960;6.250;2023-03-25T10:44:25;100077.28;;;12.36;74.83
39773;BME280;25451;51.960;6.250;2023-03-25T10:47:01;100085.06;;;12.49;75.05
39773;BME280;25451;51.960;6.250;2023-03-25T10:49:30;100069.88;;;12.62;75.03
39773;BME280;25451;51.960;6.250;2023-03-25T10:51:57;100077.88;;;12.79;74.82
39773;BME280;25451;51.960;6.250;2023-03-25T10:54:29;100088.97;;;12.89;74.56
39773;BME280;25451;51.960;6.250;2023-03-25T10:56:58;100070.41;;;12.94;74.43
39773;BME280;25451;51.960;6.250;2023-03-25T10:59:45;100072.34;;;13.04;74.46
39773;BME280;25451;51.960;6.250;2023-03-25T11:02:17;100065.41;;;13.11;74.86
39773;BME280;25451;51.960;6.250;2023-03-25T11:04:43;100084.81;;;13.16;74.38
39773;BME280;25451;51.960;6.250;2023-03-25T11:07:29;100101.41;;;13.21;74.37
39773;BME280;25451;51.960;6.250;2023-03-25T11:10:20;100108.91;;;13.21;74.59
39773;BME280;25451;51.960;6.250;2023-03-25T11:12:45;100088.97;;;13.19;74.47
39773;BME280;25451;51.960;6.250;2023-03-25T11:15:19;100083.44;;;13.19;74.29
39773;BME280;25451;51.960;6.250;2023-03-25T11:17:46;100070.41;;;13.14;74.46
39773;BME280;25451;51.960;6.250;2023-03-25T11:20:20;100085.63;;;13.12;74.67
39773;BME280;25451;51.960;6.250;2023-03-25T11:22:52;100085.94;;;13.10;74.68
39773;BME280;25451;51.960;6.250;2023-03-25T11:25:23;100079.84;;;13.08;74.75
39773;BME280;25451;51.960;6.250;2023-03-25T11:28:02;100090.34;;;13.11;74.55
39773;BME280;25451;51.960;6.250;2023-03-25T11:30:29;100084.81;;;13.16;74.72
39773;BME280;25451;51.960;6.250;2023-03-25T11:32:57;100070.91;;;13.21;74.53
39773;BME280;25451;51.960;6.250;2023-03-25T11:35:26;100098.06;;;13.29;74.20
39773;BME280;25451;51.960;6.250;2023-03-25T11:38:00;100098.66;;;13.32;74.15
39773;BME280;25451;51.960;6.250;2023-03-25T11:40:28;100085.34;;;13.34;74.39
39773;BME280;25451;51.960;6.250;2023-03-25T11:42:59;100077.81;;;13.34;74.22
39773;BME280;25451;51.960;6.250;2023-03-25T11:45:31;100086.97;;;13.40;74.24
39773;BME280;25451;51.960;6.250;2023-03-25T11:48:00;100080.31;;;13.41;74.09
39773;BME280;25451;51.960;6.250;2023-03-25T11:50:28;100103.59;;;13.45;74.03
39773;BME280;25451;51.960;6.250;2023-03-25T11:52:59;100090.00;;;13.43;73.77
39773;BME280;25451;51.960;6.250;2023-03-25T11:55:44;100088.88;;;13.44;74.19
39773;BME280;25451;51.960;6.250;2023-03-25T11:58:14;100092.50;;;13.45;73.96
39773;BME280;25451;51.960;6.250;2023-03-25T12:00:45;100070.34;;;13.40;73.65
39773;BME280;25451;51.960;6.250;2023-03-25T12:05:38;100097.47;;;13.58;73.51
39773;BME280;25451;51.960;6.250;2023-03-25T12:08:12;100087.47;;;13.62;73.68
39773;BME280;25451;51.960;6.250;2023-03-25T12:10:54;100091.34;;;13.66;73.59
39773;BME280;25451;51.960;6.250;2023-03-25T12:13:31;100090.50;;;13.65;73.51
39773;BME280;25451;51.960;6.250;2023-03-25T12:16:15;100097.97;;;13.65;73.22
39773;BME280;25451;51.960;6.250;2023-03-25T12:18:52;100074.16;;;13.64;73.38
39773;BME280;25451;51.960;6.250;2023-03-25T12:41:35;100069.59;;;13.88;72.26
39773;BME280;25451;51.960;6.250;2023-03-25T12:44:09;100045.44;;;13.93;72.00
39773;BME280;25451;51.960;6.250;2023-03-25T12:55:03;100033.66;;;14.11;71.31
39773;BME280;25451;51.960;6.250;2023-03-25T13:00:27;100038.34;;;14.21;71.32
39773;BME280;25451;51.960;6.250;2023-03-25T13:05:56;100052.44;;;14.30;70.98
39773;BME280;25451;51.960;6.250;2023-03-25T13:08:28;100048.88;;;14.29;70.74
39773;BME280;25451;51.960;6.250;2023-03-25T13:11:09;100066.06;;;14.26;70.38
39773;BME280;25451;51.960;6.250;2023-03-25T13:13:37;100072.19;;;14.23;70.32
39773;BME280;25451;51.960;6.250;2023-03-25T13:16:17;100083.84;;;14.20;70.60
39773;BME280;25451;51.960;6.250;2023-03-25T13:19:01;100097.75;;;14.15;70.48
39773;BME280;25451;51.960;6.250;2023-03-25T13:22:02;100108.34;;;14.08;70.23
39773;BME280;25451;51.960;6.250;2023-03-25T13:24:47;100110.88;;;13.99;70.45
39773;BME280;25451;51.960;6.250;2023-03-25T13:27:16;100122.28;;;13.93;70.24
39773;BME280;25451;51.960;6.250;2023-03-25T13:29:50;100087.09;;;13.83;70.20
39773;BME280;25451;51.960;6.250;2023-03-25T13:34:56;100110.75;;;13.66;70.91
39773;BME280;25451;51.960;6.250;2023-03-25T13:37:35;100099.94;;;13.59;70.76
39773;BME280;25451;51.960;6.250;2023-03-25T13:42:52;100082.00;;;13.42;71.29
39773;BME280;25451;51.960;6.250;2023-03-25T13:45:22;100081.44;;;13.35;71.26
39773;BME280;25451;51.960;6.250;2023-03-25T13:48:00;100082.00;;;13.26;71.60
39773;BME280;25451;51.960;6.250;2023-03-25T13:50:30;100070.38;;;13.19;71.60
39773;BME280;25451;51.960;6.250;2023-03-25T13:55:44;100073.72;;;13.11;72.13
39773;BME280;25451;51.960;6.250;2023-03-25T14:12:02;100069.84;;;13.22;72.03
39773;BME280;25451;51.960;6.250;2023-03-25T14:14:36;100080.63;;;13.24;71.89
39773;BME280;25451;51.960;6.250;2023-03-25T14:17:04;100090.03;;;13.28;71.60
39773;BME280;25451;51.960;6.250;2023-03-25T14:19:37;100078.66;;;13.29;71.61
39773;BME280;25451;51.960;6.250;2023-03-25T14:22:16;100073.69;;;13.32;71.60
39773;BME280;25451;51.960;6.250;2023-03-25T14:24:44;100086.97;;;13.29;71.49
39773;BME280;25451;51.960;6.250;2023-03-25T14:27:21;100084.78;;;13.26;71.41
39773;BME280;25451;51.960;6.250;2023-03-25T14:32:25;100096.72;;;13.27;71.56
39773;BME280;25451;51.960;6.250;2023-03-25T14:34:51;100119.97;;;13.26;71.45
39773;BME280;25451;51.960;6.250;2023-03-25T14:39:53;100118.03;;;13.21;71.58
39773;BME280;25451;51.960;6.250;2023-03-25T14:42:28;100114.72;;;13.19;71.12
39773;BME280;25451;51.960;6.250;2023-03-25T14:48:04;100128.03;;;13.07;71.47
39773;BME280;25451;51.960;6.250;2023-03-25T14:50:34;100128.00;;;13.02;71.26
39773;BME280;25451;51.960;6.250;2023-03-25T14:53:03;100155.16;;;13.00;71.53
39773;BME280;25451;51.960;6.250;2023-03-25T14:55:33;100135.47;;;12.92;71.53
39773;BME280;25451;51.960;6.250;2023-03-25T14:58:13;100143.53;;;12.88;71.38
39773;BME280;25451;51.960;6.250;2023-03-25T15:01:01;100138.25;;;12.82;71.53
39773;BME280;25451;51.960;6.250;2023-03-25T15:03:33;100146.81;;;12.75;71.33